createdAt,value
2023-04-01T00:02:18.322Z,8.87
2023-04-01T00:05:20.480Z,8.87
2023-04-01T00:08:22.840Z,8.79
2023-04-01T00:11:25.133Z,8.82
2023-04-01T00:14:27.293Z,8.80
2023-04-01T00:17:29.831Z,8.72
2023-04-01T00:20:32.100Z,8.58
2023-04-01T00:23:34.648Z,8.57
2023-04-01T00:26:36.813Z,8.58
2023-04-01T00:29:39.407Z,8.61
2023-04-01T00:32:42.041Z,8.59
2023-04-01T00:35:45.888Z,8.57
2023-04-01T00:38:48.779Z,8.61
2023-04-01T00:41:51.167Z,8.74
2023-04-01T00:44:54.470Z,8.68
2023-04-01T00:47:57.603Z,8.75
2023-04-01T00:51:11.121Z,8.70
2023-04-01T00:54:15.283Z,8.72
2023-04-01T00:57:23.127Z,8.75
2023-04-01T01:00:25.488Z,8.67
2023-04-01T01:03:28.467Z,8.71
2023-04-01T01:06:58.412Z,8.78
2023-04-01T01:10:01.259Z,8.76
2023-04-01T01:13:06.542Z,8.78
2023-04-01T01:16:16.635Z,8.76
2023-04-01T01:19:38.234Z,8.81
2023-04-01T01:22:47.636Z,8.81
2023-04-01T01:26:00.263Z,8.81
2023-04-01T01:29:06.006Z,8.75
2023-04-01T01:32:08.789Z,8.72
2023-04-01T01:35:11.915Z,8.76
2023-04-01T01:38:16.644Z,8.75
2023-04-01T01:41:20.428Z,8.82
2023-04-01T01:44:23.413Z,8.89
2023-04-01T01:47:27.190Z,8.92
2023-04-01T01:50:30.047Z,8.94
2023-04-01T01:53:32.825Z,8.91
2023-04-01T01:56:37.442Z,8.88
2023-04-01T01:59:42.161Z,8.91
2023-04-01T02:02:47.486Z,8.89
2023-04-01T02:05:52.647Z,8.88
2023-04-01T02:08:58.302Z,8.85
2023-04-01T02:12:02.665Z,8.94
2023-04-01T02:15:09.657Z,9.00
2023-04-01T02:18:14.080Z,9.04
2023-04-01T02:21:17.343Z,9.09
2023-04-01T02:24:23.598Z,9.11
2023-04-01T02:27:26.890Z,9.09
2023-04-01T02:30:31.219Z,9.00
2023-04-01T02:33:34.315Z,8.98
2023-04-01T02:36:38.060Z,8.98
2023-04-01T02:39:40.799Z,9.01
2023-04-01T02:42:43.935Z,9.02
2023-04-01T02:45:47.449Z,9.01
2023-04-01T02:48:50.026Z,8.95
2023-04-01T02:51:53.418Z,8.94
2023-04-01T02:54:56.471Z,8.91
2023-04-01T02:57:59.093Z,8.92
2023-04-01T03:01:01.932Z,8.86
2023-04-01T03:04:04.985Z,8.88
2023-04-01T03:07:08.386Z,8.81
2023-04-01T03:10:11.344Z,8.80
2023-04-01T03:13:14.563Z,8.77
2023-04-01T03:16:17.381Z,8.71
2023-04-01T03:19:20.749Z,8.76
2023-04-01T03:22:23.859Z,8.76
2023-04-01T03:25:26.794Z,8.73
2023-04-01T03:28:29.627Z,8.71
2023-04-01T03:31:32.538Z,8.67
2023-04-01T03:34:35.103Z,8.70
2023-04-01T03:37:37.876Z,8.64
2023-04-01T03:40:43.890Z,8.66
2023-04-01T03:43:46.587Z,8.58
2023-04-01T03:46:49.215Z,8.46
2023-04-01T03:49:53.014Z,8.43
2023-04-01T03:52:56.221Z,8.43
2023-04-01T03:55:59.093Z,8.54
2023-04-01T03:59:03.576Z,8.59
2023-04-01T04:02:07.040Z,8.59
2023-04-01T04:05:09.763Z,8.56
2023-04-01T04:08:12.258Z,8.57
2023-04-01T04:11:15.284Z,8.55
2023-04-01T04:14:18.545Z,8.50
2023-04-01T04:17:21.215Z,8.48
2023-04-01T04:20:23.597Z,8.44
2023-04-01T04:23:26.135Z,8.44
2023-04-01T04:26:29.082Z,8.46
2023-04-01T04:29:31.621Z,8.44
2023-04-01T04:32:34.228Z,8.46
2023-04-01T04:35:36.759Z,8.47
2023-04-01T04:38:39.237Z,8.51
2023-04-01T04:41:41.984Z,8.59
2023-04-01T04:44:44.314Z,8.59
2023-04-01T04:47:46.945Z,8.64
2023-04-01T04:50:50.641Z,8.70
2023-04-01T04:53:53.515Z,8.77
2023-04-01T04:56:57.017Z,8.91
2023-04-01T04:59:59.721Z,9.06
2023-04-01T05:03:03.062Z,9.14
2023-04-01T05:06:09.533Z,9.22
2023-04-01T05:09:12.435Z,9.30
2023-04-01T05:12:15.516Z,9.43
2023-04-01T05:15:18.402Z,9.52
2023-04-01T05:18:21.390Z,9.69
2023-04-01T05:21:23.668Z,9.82
2023-04-01T05:24:26.345Z,10.18
2023-04-01T05:27:29.051Z,10.44
2023-04-01T05:30:31.455Z,11.18
2023-04-01T05:33:34.203Z,11.64
2023-04-01T05:36:37.031Z,11.68
2023-04-01T05:39:40.331Z,11.46
2023-04-01T05:42:42.976Z,11.59
2023-04-01T05:45:45.731Z,11.65
2023-04-01T05:48:48.766Z,11.72
2023-04-01T05:51:52.606Z,11.92
2023-04-01T05:54:55.564Z,12.16
2023-04-01T05:57:58.221Z,12.45
2023-04-01T06:01:15.956Z,12.51
2023-04-01T06:04:19.585Z,12.53
2023-04-01T06:07:22.371Z,12.42
2023-04-01T06:10:38.682Z,12.39
2023-04-01T06:14:00.502Z,12.51
2023-04-01T06:17:18.223Z,12.32
2023-04-01T06:20:26.745Z,11.94
2023-04-01T06:23:38.145Z,11.80
2023-04-01T06:26:56.533Z,11.69
2023-04-01T06:30:20.325Z,11.91
2023-04-01T06:33:35.970Z,12.41
2023-04-01T06:36:53.743Z,12.56
2023-04-01T06:39:59.696Z,13.30
2023-04-01T06:43:35.645Z,14.04
2023-04-01T06:46:45.388Z,14.44
2023-04-01T06:49:48.400Z,14.21
2023-04-01T06:52:58.028Z,13.71
2023-04-01T06:56:08.366Z,14.78
2023-04-01T06:59:11.600Z,15.32
2023-04-01T07:02:17.057Z,15.98
2023-04-01T07:05:21.190Z,16.03
2023-04-01T07:08:28.060Z,16.27
2023-04-01T07:11:33.071Z,16.26
2023-04-01T07:14:38.330Z,16.59
2023-04-01T07:17:43.606Z,17.06
2023-04-01T07:20:47.994Z,16.23
2023-04-01T07:23:53.251Z,16.13
2023-04-01T07:26:57.845Z,15.99
2023-04-01T07:30:03.499Z,15.28
2023-04-01T07:33:11.916Z,15.44
2023-04-01T07:36:27.204Z,16.11
2023-04-01T07:39:42.579Z,16.82
2023-04-01T07:42:45.597Z,18.05
2023-04-01T07:46:05.734Z,18.06
2023-04-01T07:49:13.997Z,16.98
2023-04-01T07:52:24.139Z,15.05
2023-04-01T07:55:45.665Z,14.35
2023-04-01T07:58:55.237Z,14.70
2023-04-01T08:02:12.775Z,14.45
2023-04-01T08:05:29.061Z,14.65
2023-04-01T08:08:38.879Z,14.53
2023-04-01T08:11:48.562Z,14.39
2023-04-01T08:14:57.732Z,14.42
2023-04-01T08:18:08.349Z,14.49
2023-04-01T08:21:22.759Z,13.48
2023-04-01T08:24:26.272Z,13.60
2023-04-01T08:27:35.712Z,14.27
2023-04-01T08:31:04.876Z,14.65
2023-04-01T08:34:14.727Z,13.86
2023-04-01T08:37:26.298Z,14.43
2023-04-01T08:40:48.449Z,14.73
2023-04-01T08:44:07.611Z,14.43
2023-04-01T08:47:30.475Z,14.47
2023-04-01T08:50:43.092Z,14.49
2023-04-01T08:53:49.457Z,14.34
2023-04-01T08:57:11.622Z,14.20
2023-04-01T09:00:33.139Z,14.54
2023-04-01T09:03:39.821Z,15.19
2023-04-01T09:06:45.272Z,14.49
2023-04-01T09:10:07.820Z,14.52
2023-04-01T09:13:18.779Z,14.29
2023-04-01T09:16:40.823Z,14.46
2023-04-01T09:19:50.183Z,14.29
2023-04-01T09:23:12.729Z,14.28
2023-04-01T09:26:25.165Z,14.14
2023-04-01T09:29:35.413Z,14.26
2023-04-01T09:33:10.442Z,14.20
2023-04-01T09:36:34.025Z,13.97
2023-04-01T09:39:38.850Z,13.71
2023-04-01T09:42:42.754Z,13.76
2023-04-01T09:46:05.119Z,13.43
2023-04-01T09:49:34.627Z,13.25
2023-04-01T09:52:46.938Z,13.85
2023-04-01T09:55:51.972Z,13.51
2023-04-01T09:59:04.785Z,13.41
2023-04-01T10:02:08.054Z,13.50
2023-04-01T10:05:11.745Z,13.65
2023-04-01T10:08:35.151Z,13.91
2023-04-01T10:12:02.314Z,13.53
2023-04-01T10:15:23.656Z,13.49
2023-04-01T10:18:46.618Z,13.43
2023-04-01T10:21:53.847Z,13.61
2023-04-01T10:25:16.025Z,13.60
2023-04-01T10:28:25.069Z,13.54
2023-04-01T10:31:52.453Z,13.63
2023-04-01T10:34:58.054Z,13.72
2023-04-01T10:38:16.276Z,14.06
2023-04-01T10:41:27.704Z,14.37
2023-04-01T10:44:36.506Z,14.75
2023-04-01T10:48:18.298Z,14.38
2023-04-01T10:51:24.603Z,14.36
2023-04-01T10:55:03.641Z,14.46
2023-04-01T10:58:18.141Z,14.21
2023-04-01T11:01:24.360Z,14.48
2023-04-01T11:04:46.423Z,14.79
2023-04-01T11:08:03.153Z,15.05
2023-04-01T11:11:13.170Z,14.71
2023-04-01T11:14:34.706Z,14.77
2023-04-01T11:17:47.082Z,14.67
2023-04-01T11:21:09.886Z,14.67
2023-04-01T11:24:39.078Z,14.58
2023-04-01T11:28:01.221Z,14.73
2023-04-01T11:31:22.863Z,14.67
2023-04-01T11:34:44.059Z,15.37
2023-04-01T11:37:47.161Z,15.78
2023-04-01T11:41:16.968Z,15.58
2023-04-01T11:44:33.579Z,15.01
2023-04-01T11:47:56.157Z,14.56
2023-04-01T11:51:08.036Z,14.16
2023-04-01T11:54:26.308Z,13.93
2023-04-01T11:57:47.915Z,13.84
2023-04-01T12:01:00.022Z,13.72
2023-04-01T12:04:21.152Z,13.59
2023-04-01T12:07:27.408Z,13.68
2023-04-01T12:10:49.347Z,13.62
2023-04-01T12:14:01.134Z,14.03
2023-04-01T12:17:07.005Z,14.49
2023-04-01T12:20:27.629Z,14.91
2023-04-01T12:23:40.941Z,15.07
2023-04-01T12:26:44.232Z,14.91
2023-04-01T12:30:00.634Z,15.31
2023-04-01T12:33:22.159Z,15.30
2023-04-01T12:36:32.732Z,15.02
2023-04-01T12:39:44.717Z,15.08
2023-04-01T12:42:56.734Z,14.82
2023-04-01T12:46:15.933Z,14.65
2023-04-01T12:49:18.698Z,14.41
2023-04-01T12:52:30.796Z,14.52
2023-04-01T12:55:47.126Z,14.81
2023-04-01T12:58:50.303Z,15.18
2023-04-01T13:02:01.940Z,15.11
2023-04-01T13:05:38.244Z,15.09
2023-04-01T13:08:46.991Z,15.16
2023-04-01T13:12:09.239Z,15.16
2023-04-01T13:15:24.124Z,15.34
2023-04-01T13:18:36.403Z,15.47
2023-04-01T13:21:42.790Z,15.12
2023-04-01T13:24:48.539Z,14.96
2023-04-01T13:28:04.328Z,15.02
2023-04-01T13:31:28.855Z,15.00
2023-04-01T13:34:38.266Z,14.74
2023-04-01T13:37:51.202Z,14.66
2023-04-01T13:41:03.920Z,14.54
2023-04-01T13:44:19.884Z,14.58
2023-04-01T13:47:34.511Z,14.72
2023-04-01T13:50:56.263Z,14.61
2023-04-01T13:54:13.422Z,14.88
2023-04-01T13:57:40.168Z,14.71
2023-04-01T14:00:56.241Z,14.45
2023-04-01T14:03:59.305Z,14.15
2023-04-01T14:07:02.635Z,14.05
2023-04-01T14:10:06.375Z,14.06
2023-04-01T14:13:15.917Z,14.08
2023-04-01T14:16:40.139Z,14.06
2023-04-01T14:19:42.683Z,14.04
2023-04-01T14:23:03.799Z,14.06
2023-04-01T14:26:14.765Z,13.62
2023-04-01T14:29:23.402Z,13.87
2023-04-01T14:32:33.084Z,13.90
2023-04-01T14:35:39.730Z,13.85
2023-04-01T14:39:09.309Z,13.81
2023-04-01T14:42:21.428Z,13.84
2023-04-01T14:45:48.145Z,14.07
2023-04-01T14:49:04.923Z,14.31
2023-04-01T14:52:13.614Z,14.46
2023-04-01T14:55:25.712Z,14.41
2023-04-01T14:58:54.808Z,14.56
2023-04-01T15:02:16.473Z,14.64
2023-04-01T15:05:33.326Z,14.78
2023-04-01T15:09:07.187Z,15.00
2023-04-01T15:12:10.072Z,14.88
2023-04-01T15:15:13.352Z,14.69
2023-04-01T15:18:23.960Z,14.64
2023-04-01T15:21:47.197Z,14.88
2023-04-01T15:25:08.679Z,14.85
2023-04-01T15:28:33.111Z,14.84
2023-04-01T15:31:42.745Z,14.66
2023-04-01T15:35:13.238Z,14.92
2023-04-01T15:38:35.388Z,14.83
2023-04-01T15:41:37.862Z,14.98
2023-04-01T15:44:53.455Z,14.97
2023-04-01T15:48:03.226Z,15.10
2023-04-01T15:51:12.014Z,15.22
2023-04-01T15:54:28.935Z,15.01
2023-04-01T15:57:50.357Z,15.04
2023-04-01T16:01:00.775Z,15.00
2023-04-01T16:04:22.458Z,14.95
2023-04-01T16:07:25.911Z,14.78
2023-04-01T16:10:28.592Z,14.79
2023-04-01T16:13:50.948Z,14.87
2023-04-01T16:17:13.520Z,14.83
2023-04-01T16:20:23.990Z,14.79
2023-04-01T16:23:45.303Z,14.79
2023-04-01T16:27:01.295Z,14.61
2023-04-01T16:30:22.946Z,14.68
2023-04-01T16:33:33.875Z,14.56
2023-04-01T16:36:43.768Z,14.51
2023-04-01T16:39:52.193Z,14.42
2023-04-01T16:42:57.496Z,14.37
2023-04-01T16:46:23.134Z,14.21
2023-04-01T16:49:34.595Z,14.09
2023-04-01T16:53:01.185Z,13.96
2023-04-01T16:56:04.039Z,13.78
2023-04-01T16:59:16.486Z,13.65
2023-04-01T17:02:23.392Z,13.53
2023-04-01T17:05:42.011Z,13.40
2023-04-01T17:08:47.995Z,13.31
2023-04-01T17:11:51.801Z,13.15
2023-04-01T17:15:15.123Z,13.02
2023-04-01T17:18:29.275Z,12.91
2023-04-01T17:21:48.481Z,12.89
2023-04-01T17:25:00.335Z,12.81
2023-04-01T17:28:15.274Z,12.66
2023-04-01T17:31:27.255Z,12.51
2023-04-01T17:34:32.985Z,12.42
2023-04-01T17:37:53.474Z,12.25
2023-04-01T17:41:09.060Z,12.09
2023-04-01T17:44:26.887Z,12.04
2023-04-01T17:47:46.739Z,11.90
2023-04-01T17:50:53.719Z,11.83
2023-04-01T17:54:07.577Z,11.70
2023-04-01T17:57:11.038Z,11.58
2023-04-01T18:00:13.675Z,11.48
2023-04-01T18:03:28.458Z,11.38
2023-04-01T18:06:35.576Z,11.30
2023-04-01T18:09:47.305Z,11.23
2023-04-01T18:13:02.128Z,11.22
2023-04-01T18:16:08.117Z,11.20
2023-04-01T18:19:22.910Z,11.15
2023-04-01T18:22:28.615Z,11.06
2023-04-01T18:25:43.235Z,10.93
2023-04-01T18:28:57.827Z,10.85
2023-04-01T18:32:10.316Z,10.82
2023-04-01T18:35:46.986Z,10.72
2023-04-01T18:38:49.603Z,10.66
2023-04-01T18:42:16.301Z,10.57
2023-04-01T18:45:29.427Z,10.52
2023-04-01T18:48:53.692Z,10.48
2023-04-01T18:51:59.295Z,10.43
2023-04-01T18:55:08.836Z,10.36
2023-04-01T18:58:25.006Z,10.32
2023-04-01T19:01:36.199Z,10.24
2023-04-01T19:04:42.104Z,10.19
2023-04-01T19:07:47.100Z,10.15
2023-04-01T19:11:03.887Z,10.15
2023-04-01T19:14:24.166Z,10.20
2023-04-01T19:17:39.124Z,10.18
2023-04-01T19:20:44.568Z,10.24
2023-04-01T19:24:00.641Z,10.25
2023-04-01T19:27:21.641Z,10.20
2023-04-01T19:30:30.741Z,10.22
2023-04-01T19:33:40.023Z,10.15
2023-04-01T19:36:51.465Z,10.08
2023-04-01T19:40:03.570Z,10.06
2023-04-01T19:43:24.835Z,9.99
2023-04-01T19:46:36.629Z,9.88
2023-04-01T19:49:52.783Z,9.78
2023-04-01T19:52:56.574Z,9.75
2023-04-01T19:56:08.683Z,9.68
2023-04-01T19:59:15.685Z,9.63
2023-04-01T20:02:41.589Z,9.57
2023-04-01T20:05:45.198Z,9.48
2023-04-01T20:08:51.045Z,9.46
2023-04-01T20:12:00.394Z,9.33
2023-04-01T20:15:20.777Z,9.23
2023-04-01T20:18:44.949Z,9.14
2023-04-01T20:21:49.414Z,9.07
2023-04-01T20:24:53.129Z,8.97
2023-04-01T20:28:14.431Z,8.88
2023-04-01T20:31:38.423Z,8.82
2023-04-01T20:35:07.826Z,8.72
2023-04-01T20:38:10.704Z,8.71
2023-04-01T20:41:21.288Z,8.60
2023-04-01T20:44:36.766Z,8.53
2023-04-01T20:47:59.888Z,8.47
2023-04-01T20:51:07.515Z,8.42
2023-04-01T20:54:25.064Z,8.44
2023-04-01T20:57:34.129Z,8.38
2023-04-01T21:00:36.759Z,8.41
2023-04-01T21:03:57.865Z,8.34
2023-04-01T21:07:18.533Z,8.44
2023-04-01T21:10:33.293Z,8.48
2023-04-01T21:13:55.405Z,8.19
2023-04-01T21:17:07.280Z,8.14
2023-04-01T21:20:10.883Z,8.14
2023-04-01T21:23:22.980Z,8.10
2023-04-01T21:26:34.059Z,8.04
2023-04-01T21:29:57.873Z,8.03
2023-04-01T21:33:10.310Z,7.97
2023-04-01T21:36:31.198Z,7.99
2023-04-01T21:39:45.853Z,8.01
2023-04-01T21:43:07.162Z,8.10
2023-04-01T21:46:09.852Z,8.12
2023-04-01T21:49:30.959Z,8.03
2023-04-01T21:52:33.158Z,8.02
2023-04-01T21:55:35.892Z,8.19
2023-04-01T21:58:44.869Z,8.43
2023-04-01T22:02:06.523Z,8.40
2023-04-01T22:05:09.321Z,8.48
2023-04-01T22:08:30.745Z,8.66
2023-04-01T22:11:55.823Z,8.57
2023-04-01T22:15:13.936Z,8.64
2023-04-01T22:18:24.384Z,8.71
2023-04-01T22:21:28.570Z,8.80
2023-04-01T22:24:36.249Z,8.87
2023-04-01T22:27:51.918Z,8.86
2023-04-01T22:30:58.098Z,8.79
2023-04-01T22:34:22.900Z,8.86
2023-04-01T22:37:31.971Z,8.94
2023-04-01T22:40:49.565Z,9.22
2023-04-01T22:43:52.757Z,9.19
2023-04-01T22:47:02.215Z,9.13
2023-04-01T22:50:20.636Z,9.01
2023-04-01T22:53:26.829Z,9.04
2023-04-01T22:56:33.488Z,9.01
2023-04-01T22:59:54.490Z,9.01
2023-04-01T23:03:07.748Z,8.83
2023-04-01T23:06:17.089Z,9.01
2023-04-01T23:09:24.167Z,9.25
2023-04-01T23:12:28.719Z,9.44
2023-04-01T23:15:32.227Z,9.53
2023-04-01T23:18:52.017Z,9.53
2023-04-01T23:22:08.281Z,9.51
2023-04-01T23:25:40.561Z,9.46
2023-04-01T23:28:46.379Z,9.65
2023-04-01T23:31:51.407Z,9.61
2023-04-01T23:35:00.027Z,9.80
2023-04-01T23:38:04.083Z,9.90
2023-04-01T23:41:07.606Z,9.81
2023-04-01T23:44:12.086Z,9.70
2023-04-01T23:47:17.983Z,9.54
2023-04-01T23:50:22.602Z,9.40
2023-04-01T23:53:30.829Z,9.30
2023-04-01T23:56:40.873Z,9.18
2023-04-01T23:59:43.473Z,9.08
